Relevés horaires Semmerzake (Belgique)


Relevés horaires à Semmerzake - Jeudi 03 Juin 2021
Heure UTC1 Température [°C] Vent [km/h] Hum. [%] Pres.4 [hPa] Visi. [Km] Nébu. [octa] Préc.5 [mm] Cond.
2m. Res. Ros. Dir.2 Vit. Moy. Raf.3
23:00 16.4 16.4 14.3 NNO 1.9 -- 1.9 87 1020.8(0.6/3h) 8 -- -- --
22:00 18.1 18.1 15.0 NNO 1.9 -- 1.9 82 1020.8(1.0/3h) 10 -- -- --
21:00 18.8 18.8 15.1 NNO 1.9 -- 9.3 79 1020.7(1.0/3h) 11 -- -- --
20:00 19.5 19.5 15.4 NNO 1.9 -- 5.6 77 1020.2(0.9/3h) 11 -- -- --
19:00 20.4 20.4 15.7 N 3.7 -- 9.3 74 1019.8(0.7/3h) 12 -- -- --
18:00 21.4 21.4 16.4 N 5.6 -- 11.1 73 1019.7(0.5/3h) 12 -- -- --
17:00 23.1 23.1 16.4 NO 5.6 -- 11.1 66 1019.2(0.0/3h) 10 -- -- --
16:00 23.7 23.7 15.8 ONO 3.7 -- 11.1 61 1019(-0.3/3h) 16 -- -- --
15:00 23.9 23.9 14.0 NO 3.7 -- 11.1 54 1019.1(-0.3/3h) 18 -- -- --
14:00 23.9 23.9 14.4 OSO 7.4 -- 11.1 55 1019.2(-0.2/3h) 18 -- -- --
13:00 23.4 23.4 14.8 SSO 5.6 -- 9.3 58 1019.3(0.0/3h) 15 -- -- --
12:00 23.2 23.2 15.1 SO 3.7 -- 11.1 60 1019.5(0.3/3h) 20 -- -- --
11:00 21.7 21.7 15.0 OSO 5.6 -- 9.3 66 1019.5(0.6/3h) 16 -- -- --
10:00 21.7 21.7 17.2 O 3.7 -- 7.4 76 1019.2(0.9/3h) 10 -- -- --
09:00 20.9 20.9 17.1 O 3.7 -- 9.3 79 1019.2(1.1/3h) 10 -- -- --
08:00 19.8 19.8 17.5 SSO 5.6 -- 9.3 87 1018.7(1.3/3h) 10 -- -- --
07:00 19.6 19.6 17.6 SSO 5.6 -- 9.3 88 1018.3(1.4/3h) 9 -- -- --
06:00 18.0 18.0 16.6 SSO 3.7 -- 9.3 92 1018(1.5/3h) 12 -- 0.5/12h
--
05:00 17.7 17.7 16.3 SSO 5.6 -- 7.4 92 1017.5(1.1/3h) 14 -- -- --
04:00 17.7 17.7 15.9 SSO 5.6 -- 9.3 89 1017(0.5/3h) 18 -- -- --
03:00 17.2 17.2 15.5 SSO 5.6 -- 9.3 90 1016.5(0.2/3h) 17 -- -- --
02:00 16.7 16.7 15.2 S 5.6 -- 7.4 91 1016.3(0.3/3h) 18 -- -- --
01:00 17.0 17.0 15.0 S 5.6 -- 7.4 88 1016.3(0.5/3h) 20 -- -- --
00:00 16.4 16.4 14.3 S 3.7 -- 22.2 87 1016.2(0.5/3h) 20 -- 0.5/6h
NA

1 Coordinated Universal Time. Actuellement il est 07:00 locale et 05:00 UTC.

2 Le vent souffle depuis la direction indiquée vers la direction oposée.

3 Les rafales max. sont disponible 40 min après l'heure du relevé.

4 Pour les stations d'altitude (plus de 600m) le géopotentiel du niveau le plus proche de la pression obligatoire est indiqué.

5 Les stations disposant d'un diffuseur peuvent indiquer "trace". Cela signifie que des précipitations ont touchés le sol mais que la quantité est inférieure à 0.1 mm.

Récapitulatif de la journée
Température [°C] Vent [km/h] Ensoleillement4 [h] Precipitations totale5 [mm] Pression [Hpa]
Min1 Max.2 Moy.3 Max. Min Max.
16.3 25.1 0 22.2 0 h 0 min 0 1016.2 1020.8

1 Température minimale relevée entre 18:00 UTC la veille et 18:00 UTC le jour donné.

2 Température maximale relevée entre 06:00 UTC le jour donné et 06:00 UTC le lendemain.

3 Vent moyen de la journée basé sur les relevés horaires.

4 Ensoleillement en heures relevé entre 06:00 UTC la veille et 06:00 UTC le jour donné.

5 Précipitations totales tombées entre 06:00 UTC la jour donné et 06:00 UTC le lendemain.

Graphiques horaires